Bei Facebook empfehlenBei Twitter postenGoogle plusPinterest

Das Wetter im Erzgebirge am 30.10.2015

Wetter und Klima am 30.10.2015 Holzhau im Erzgebirge (630m ü.NN)
Letzte gemessene Temperatur und Uhrzeit der Messung23:59:00 Uhr4.90 °C
Temperatur (Maximum / Höchstwert) und Uhrzeit der Messung12:29:00 Uhr12.10 °C
Temperatur (Minimum / Tiefstwert) und Uhrzeit der Messung23:14:004.70 °C
Errechneter Absolutwert der Temperaturschwankungen zwischen Tmin und Tmax des Tages7.40 K
Errechnete Tagesmitteltemperatur7.58229 °C
Gesamt - Niederschlag des Tages (in flüssiger Form)0.00 Liter / m²
Luftdruck (Maximum / Höchstwert) und Zeitpunkt der Messung20:44:00 Uhr1026.50 hPa
Luftdruck (Minimum / Tiefstwert) und Zeitpunkt der Messung00:14:00 Uhr1020.50 hPa
Errechneter Absolutwert der Luftdruckschwankungen des Tages6.00 hPa
Höchste gemessene Windgeschwindigkeit und Uhrzeit der Messung12:29:00 Uhr9.36 km/h
Errechnete Windhäufigkeit in Relation zu den Messwerten des Tages20.83333 %
Niedrigste Windkühle (Windchill) und Zeitpunkt der Messung23:14:00 Uhr4.70 °C
Taupunkt (Maximum / Höchstwert) und Uhrzeit der Messung12:14:00 Uhr9.40 °C
Taupunkt (Minimum / Tiefstwert) und Uhrzeit der Messung23:14:003.20 °C
Anzahl der automatisch eingelesenen Messwerte 96

Detaillierte Wetter- und Klima- Messwerte für den 30.10.2015 in Holzhau im Erzgebirge (630m ü.NN)
ZeitTemperaturLuftdruckRel. LuftfeuchteWindWindrichtungWindchillTaupunktNiederschlag l/m²
23:59:004.90 °C1026.00 hPa91.00 %3.60 °C 
23:44:004.90 °C1026.20 hPa91.00 %3.60 °C 
23:29:004.80 °C1026.30 hPa91.00 %3.50 °C 
23:14:004.70 °C1026.30 hPa90.00 %3.20 °C 
22:59:004.70 °C1026.10 hPa90.00 %3.20 °C 
22:44:004.80 °C1026.30 hPa90.00 %3.30 °C 
22:29:004.90 °C1026.30 hPa90.00 %1.80 km/hNNO4.90 °C3.40 °C 
22:14:005.10 °C1026.30 hPa90.00 %3.60 °C 
21:59:005.30 °C1026.40 hPa90.00 %3.80 °C 
21:44:005.40 °C1026.10 hPa90.00 %3.90 °C 
21:29:005.50 °C1026.10 hPa90.00 %1.80 km/hO5.50 °C4.00 °C 
21:14:005.60 °C1026.20 hPa90.00 %1.80 km/hSO5.60 °C4.10 °C 
20:59:005.80 °C1026.30 hPa90.00 %4.30 °C 
20:44:005.90 °C1026.50 hPa90.00 %4.40 °C 
20:29:005.90 °C1026.20 hPa89.00 %4.20 °C 
20:14:006.10 °C1026.40 hPa89.00 %3.24 km/hSSO6.10 °C4.40 °C 
19:59:006.20 °C1026.40 hPa89.00 %4.50 °C 
19:44:006.20 °C1026.30 hPa89.00 %4.50 °C 
19:29:006.30 °C1026.30 hPa89.00 %4.60 °C 
19:14:006.40 °C1026.40 hPa89.00 %4.32 km/hSSO6.40 °C4.70 °C 
18:59:006.40 °C1026.20 hPa88.00 %4.60 °C 
18:44:006.50 °C1026.00 hPa88.00 %4.70 °C 
18:29:006.60 °C1026.00 hPa88.00 %3.96 km/hSO6.60 °C4.80 °C 
18:14:006.80 °C1026.20 hPa87.00 %1.80 km/hNO6.80 °C4.80 °C 
17:59:006.90 °C1026.00 hPa87.00 %4.90 °C 
17:44:006.90 °C1025.70 hPa87.00 %2.88 km/hSW6.90 °C4.90 °C 
17:29:007.20 °C1025.80 hPa86.00 %5.00 °C 
17:14:007.30 °C1025.60 hPa86.00 %5.10 °C 
16:59:007.40 °C1025.50 hPa86.00 %7.92 km/hSO6.00 °C5.20 °C 
16:44:007.60 °C1025.20 hPa86.00 %5.40 °C 
16:29:007.90 °C1025.20 hPa85.00 %5.50 °C 
16:14:008.10 °C1025.30 hPa85.00 %5.70 °C 
15:59:008.40 °C1025.10 hPa84.00 %1.44 km/hSSO8.40 °C5.90 °C 
15:44:008.80 °C1025.20 hPa84.00 %7.56 km/hSSO7.70 °C6.20 °C 
15:29:009.20 °C1025.00 hPa83.00 %5.40 km/hSSO8.70 °C6.50 °C 
15:14:009.50 °C1024.90 hPa83.00 %6.80 °C 
14:59:009.80 °C1024.70 hPa82.00 %6.90 °C 
14:44:009.90 °C1024.70 hPa82.00 %7.00 °C 
14:29:0010.10 °C1024.50 hPa82.00 %7.20 °C 
14:14:0010.30 °C1024.40 hPa82.00 %1.08 km/hSSW10.30 °C7.40 °C 
13:59:0010.40 °C1024.40 hPa81.00 %7.30 °C 
13:44:0010.60 °C1024.50 hPa81.00 %0.72 km/hWSW10.60 °C7.50 °C 
13:29:0011.10 °C1024.20 hPa81.00 %7.92 km/hSSW10.30 °C8.00 °C 
13:14:0011.30 °C1024.20 hPa81.00 %2.16 km/hSW11.30 °C8.20 °C 
12:59:0011.40 °C1024.20 hPa81.00 %8.30 °C 
12:44:0011.80 °C1024.20 hPa82.00 %2.52 km/hSO11.80 °C8.80 °C 
12:29:0012.10 °C1024.30 hPa83.00 %9.36 km/hSSW11.20 °C9.30 °C 
12:14:0011.80 °C1024.30 hPa85.00 %2.52 km/hSO11.80 °C9.40 °C 
11:59:0011.10 °C1024.30 hPa86.00 %8.80 °C 
11:44:0010.60 °C1024.10 hPa86.00 %8.40 °C 
11:29:0010.50 °C1024.00 hPa87.00 %5.04 km/hSW10.30 °C8.40 °C 
11:14:0010.10 °C1023.80 hPa88.00 %8.20 °C 
10:59:009.90 °C1023.90 hPa89.00 %8.20 °C 
10:44:009.90 °C1023.70 hPa89.00 %8.20 °C 
10:29:009.70 °C1023.70 hPa90.00 %8.10 °C 
10:14:009.40 °C1023.60 hPa91.00 %8.00 °C 
09:59:009.10 °C1023.40 hPa92.00 %7.90 °C 
09:44:008.90 °C1023.50 hPa92.00 %7.70 °C 
09:29:008.50 °C1023.30 hPa93.00 %7.40 °C 
09:14:008.20 °C1023.20 hPa93.00 %7.10 °C 
08:59:007.90 °C1023.20 hPa93.00 %6.80 °C 
08:44:007.60 °C1023.00 hPa93.00 %6.50 °C 
08:29:007.40 °C1022.80 hPa93.00 %6.30 °C 
08:14:007.20 °C1022.70 hPa93.00 %6.10 °C 
07:59:007.10 °C1022.50 hPa94.00 %6.20 °C 
07:44:006.90 °C1022.50 hPa93.00 %5.80 °C 
07:29:006.80 °C1022.20 hPa93.00 %5.70 °C 
07:14:006.80 °C1022.20 hPa93.00 %5.70 °C 
06:59:006.80 °C1022.10 hPa93.00 %5.70 °C 
06:44:006.80 °C1021.90 hPa93.00 %5.70 °C 
06:29:006.90 °C1021.70 hPa93.00 %5.80 °C 
06:14:006.90 °C1021.60 hPa93.00 %5.80 °C 
05:59:006.90 °C1021.60 hPa93.00 %5.80 °C 
05:44:006.90 °C1021.50 hPa93.00 %5.80 °C 
05:29:006.90 °C1021.60 hPa93.00 %5.80 °C 
05:14:006.90 °C1021.60 hPa93.00 %5.80 °C 
04:59:006.90 °C1021.40 hPa93.00 %5.80 °C 
04:44:006.90 °C1021.30 hPa93.00 %5.80 °C 
04:29:006.90 °C1021.40 hPa93.00 %5.80 °C 
04:14:006.90 °C1021.20 hPa93.00 %5.80 °C 
03:59:006.90 °C1021.20 hPa93.00 %5.80 °C 
03:44:006.90 °C1021.00 hPa92.00 %5.70 °C 
03:29:006.90 °C1020.80 hPa92.00 %5.70 °C 
03:14:006.90 °C1020.90 hPa92.00 %5.70 °C 
02:59:007.00 °C1020.70 hPa92.00 %5.80 °C 
02:44:007.00 °C1020.70 hPa92.00 %5.80 °C 
02:29:007.00 °C1021.10 hPa92.00 %5.80 °C 
02:14:007.00 °C1021.00 hPa92.00 %5.80 °C 
01:59:006.90 °C1021.00 hPa92.00 %5.70 °C 
01:44:006.90 °C1021.00 hPa92.00 %5.70 °C 
01:29:006.90 °C1021.10 hPa92.00 %5.70 °C 
01:14:006.90 °C1020.90 hPa92.00 %5.70 °C 
00:59:006.90 °C1020.70 hPa92.00 %5.70 °C 
00:44:006.80 °C1020.60 hPa92.00 %5.60 °C 
00:29:006.70 °C1020.90 hPa92.00 %5.50 °C 
00:14:006.60 °C1020.50 hPa92.00 %5.40 °C 

Permanenter Link zu dieser Seite: Wetter im Erzgebirge am 30.10.2015
Performance-Info: Die Erstellung der Seite / Statistik(en) / Tabelle(n) erforderte 5 Datenbankserver-Abfrage(n) und dauerte 69 Millisekunden. (Dieser Messwert ist von der Gesamt-Auslastung des Servers abhängig.)
Erzgebirge - Wetter | Erzgebirge - Wetter (Mobilgeräte) | Komplette Klimadatenbank